Terminal Aerodrome Forecast
Issued by NWS Charleston, WV

Current Version | Previous Version | Graphics & Text | Print | Product List | Glossary Off
Versions: 1 2 3 4 5 6 7 8 9 10 11 12 13 14 15 16 17 18 19 20 21 22 23

000
FTUS41 KRLX 280859 AAA
TAFCRW
TAF AMD
KCRW 280859Z 2809/0106 VRB02KT P6SM SCT200
     FM281200 15004KT P6SM BKN200
     FM281700 17007KT P6SM -SHRA OVC050
     FM281900 19008KT 4SM SHRA VCTS BKN025 OVC040CB
     FM010100 19007KT P6SM OVC020
     FM010400 19008KT P6SM OVC015=

USA.gov is the U.S. government's official web portal to all federal, state and local government web resources and services.